Terminal Aerodrome Forecast
Issued by NWS

Current Version | Previous Version | Text Only | Print | Product List | Glossary On
Versions: 1 2 3 4 5 6 7 8 9 10 11 12
273
FTUS46 KSEW 031720
TAFCLM
TAF
KCLM 031720Z 0318/0418 30007KT P6SM BKN100 BKN200
     FM032200 28012G20KT P6SM VCSH BKN040 OVC080
     FM040900 28008KT P6SM BKN018 OVC040
     FM041700 28006KT P6SM VCSH BKN022 BKN050=

USA.gov is the U.S. government's official web portal to all federal, state and local government web resources and services.